Time;durP1;ratioP1;P1;durP2;ratioP2;P2;SDS_P1;SDS_P2;PMS_P1;PMS_P2;Temp;Humidity;BMP_temperature;BMP_pressure;BME280_temperature;BME280_humidity;BME280_pressure;Samples;Min_cycle;Max_cycle;Signal;HPM_P1;HPM_P2
2023/05/13 08:06:32;;;;;;;13.13;9.43;;;;;;;14.69;100.00;101936.72;5160078;27;20364;-70
2023/05/13 08:08:57;;;;;;;11.68;9.60;;;;;;;14.81;100.00;101937.63;5151363;27;20083;-69
2023/05/13 08:11:22;;;;;;;12.23;9.25;;;;;;;14.87;100.00;101941.31;5150710;27;20100;-69
2023/05/13 08:13:48;;;;;;;12.75;9.13;;;;;;;14.84;100.00;101930.88;5151093;27;20100;-75
2023/05/13 08:16:13;;;;;;;16.52;8.77;;;;;;;14.87;100.00;101931.28;5151507;27;20466;-70
2023/05/13 08:18:38;;;;;;;12.00;9.30;;;;;;;14.98;100.00;101939.75;5150106;27;20028;-70
2023/05/13 08:21:03;;;;;;;15.20;8.75;;;;;;;15.06;100.00;101939.44;5151513;27;20102;-70
2023/05/13 08:23:29;;;;;;;12.75;8.50;;;;;;;15.14;100.00;101936.41;5150964;27;20046;-73
2023/05/13 08:25:54;;;;;;;14.02;8.85;;;;;;;15.30;100.00;101928.66;5150203;27;20019;-69
2023/05/13 08:28:20;;;;;;;10.95;8.70;;;;;;;15.40;100.00;101935.22;5151142;27;20219;-69
2023/05/13 08:30:45;;;;;;;9.55;8.32;;;;;;;15.48;97.85;101935.97;5150013;27;20027;-68
2023/05/13 08:33:10;;;;;;;13.68;9.02;;;;;;;15.40;98.11;101929.78;5131389;27;20068;-70
2023/05/13 08:35:36;;;;;;;11.15;8.27;;;;;;;15.53;100.00;101933.38;5149514;27;20452;-75
2023/05/13 08:38:04;;;;;;;12.38;9.00;;;;;;;15.47;97.60;101926.13;5132075;27;20426;-72
2023/05/13 08:40:30;;;;;;;12.10;8.57;;;;;;;15.56;100.00;101930.19;5129933;27;20104;-73
2023/05/13 08:42:59;;;;;;;10.15;8.48;;;;;;;15.56;96.98;101932.91;5149949;27;20031;-70
2023/05/13 08:45:28;;;;;;;13.52;9.07;;;;;;;15.70;100.00;101934.38;5154648;27;20110;-72
2023/05/13 08:48:01;;;;;;;15.95;9.27;;;;;;;15.76;100.00;101938.06;5152228;27;20026;-71
2023/05/13 08:50:28;;;;;;;11.32;8.30;;;;;;;16.03;100.00;101933.03;5149346;27;20109;-71
2023/05/13 08:52:54;;;;;;;12.57;8.68;;;;;;;16.09;100.00;101937.59;5148916;27;20019;-73
2023/05/13 08:55:20;;;;;;;12.88;9.15;;;;;;;16.07;91.00;101936.16;5114608;27;20023;-74
2023/05/13 08:57:45;;;;;;;12.23;8.80;;;;;;;16.05;90.68;101930.94;5130022;27;20477;-73
2023/05/13 09:00:13;;;;;;;9.88;8.32;;;;;;;16.13;94.08;101935.22;5110947;27;20126;-72
2023/05/13 09:02:38;;;;;;;13.90;8.85;;;;;;;16.09;90.14;101923.94;5122060;28;20040;-71
2023/05/13 09:05:06;;;;;;;15.77;8.52;;;;;;;16.17;81.77;101928.22;5129625;28;20105;-70
2023/05/13 09:07:32;;;;;;;9.05;8.00;;;;;;;16.29;84.19;101930.97;5111323;28;20057;-74
2023/05/13 09:09:58;;;;;;;12.60;8.63;;;;;;;16.32;79.25;101929.63;5109884;28;20032;-75
2023/05/13 09:12:43;;;;;;;13.65;8.50;;;;;;;16.39;80.51;101931.19;5129328;28;20027;-73
2023/05/13 09:15:11;;;;;;;11.15;8.70;;;;;;;16.52;80.85;101929.28;5107644;28;20023;-73
2023/05/13 09:17:38;;;;;;;11.10;7.88;;;;;;;16.48;79.13;101928.91;5094150;28;20039;-74
2023/05/13 09:20:09;;;;;;;12.57;8.15;;;;;;;16.57;83.74;101923.94;5077004;28;20485;-71
2023/05/13 09:22:35;;;;;;;11.68;8.55;;;;;;;16.66;76.63;101927.97;5076859;28;20103;-73
2023/05/13 09:25:00;;;;;;;10.48;8.38;;;;;;;16.70;76.74;101931.88;5110489;28;20110;-72
2023/05/13 09:27:37;;;;;;;10.20;8.15;;;;;;;16.79;80.81;101927.72;5114245;28;20026;-70
2023/05/13 09:30:03;;;;;;;13.73;9.20;;;;;;;16.84;78.06;101927.81;5115762;28;20020;-69
2023/05/13 09:32:28;;;;;;;9.93;8.43;;;;;;;16.96;75.11;101922.34;5097198;28;20054;-70
2023/05/13 09:34:54;;;;;;;11.00;8.55;;;;;;;17.03;80.11;101908.56;5103806;28;20102;-70
2023/05/13 09:37:23;;;;;;;9.73;8.30;;;;;;;17.14;83.08;101915.88;5115385;28;20038;-69
2023/05/13 09:39:51;;;;;;;14.65;8.80;;;;;;;17.24;81.62;101912.53;5107843;28;20471;-69
2023/05/13 09:42:17;;;;;;;14.80;9.43;;;;;;;17.27;81.04;101919.38;5099774;28;20015;-70
2023/05/13 09:44:44;;;;;;;10.35;9.15;;;;;;;17.42;83.34;101911.50;5115291;28;20092;-71
2023/05/13 09:47:13;;;;;;;10.43;9.43;;;;;;;17.47;82.54;101913.50;5097735;28;20032;-71
2023/05/13 09:49:40;;;;;;;11.32;9.68;;;;;;;17.55;79.88;101910.34;5093052;28;20412;-70
2023/05/13 09:52:11;;;;;;;13.60;9.00;;;;;;;17.61;77.63;101911.28;5094914;28;20451;-70
2023/05/13 09:54:37;;;;;;;;;;;;;;;17.64;85.74;101908.88;5094888;28;20055;-70
2023/05/13 09:57:03;;;;;;;8.68;6.95;;;;;;;17.78;70.55;101914.84;5088288;28;20374;-76
2023/05/13 09:59:35;;;;;;;13.70;8.02;;;;;;;17.88;72.74;101920.50;5089945;28;20028;-71
2023/05/13 10:02:05;;;;;;;12.98;7.57;;;;;;;17.87;75.41;101907.91;5071411;28;20127;-71
2023/05/13 10:04:33;;;;;;;9.30;7.65;;;;;;;18.14;72.38;101910.00;5114792;28;20052;-72
2023/05/13 10:07:02;;;;;;;8.57;7.15;;;;;;;18.12;70.71;101914.91;5112901;28;20078;-71
2023/05/13 10:09:29;;;;;;;10.25;7.60;;;;;;;18.18;66.87;101905.69;5092696;28;20051;-70
2023/05/13 10:11:56;;;;;;;11.23;7.97;;;;;;;18.30;71.38;101893.78;5101889;28;20019;-72
2023/05/13 10:14:23;;;;;;;12.73;8.88;;;;;;;18.38;71.26;101896.09;5093282;28;20073;-75
2023/05/13 10:16:49;;;;;;;9.95;7.57;;;;;;;18.40;70.67;101896.66;5094258;28;20473;-71
2023/05/13 10:19:15;;;;;;;12.35;7.35;;;;;;;18.58;67.88;101898.28;5094486;28;20016;-71
2023/05/13 10:21:41;;;;;;;8.77;6.90;;;;;;;18.72;68.97;101901.50;5092857;28;20412;-71
2023/05/13 10:24:07;;;;;;;11.15;7.47;;;;;;;18.71;69.18;101894.38;5093990;28;20016;-72
2023/05/13 10:26:33;;;;;;;8.63;6.78;;;;;;;18.89;66.27;101891.34;5096828;28;20107;-73
2023/05/13 10:29:01;;;;;;;15.60;7.15;;;;;;;19.00;67.21;101894.19;5094436;28;20366;-72
2023/05/13 10:31:28;;;;;;;7.50;6.63;;;;;;;19.03;66.89;101890.94;5090439;28;20359;-71
2023/05/13 10:33:56;;;;;;;10.48;7.57;;;;;;;19.08;66.68;101899.22;5075887;28;20446;-72
2023/05/13 10:36:41;;;;;;;11.35;7.53;;;;;;;19.06;67.47;101885.75;5075773;28;20042;-71
2023/05/13 10:39:25;;;;;;;9.95;7.03;;;;;;;19.07;66.98;101895.66;5091692;28;20027;-73
2023/05/13 10:42:32;;;;;;;13.02;7.07;;;;;;;19.14;67.49;101895.44;5093743;28;20054;-71
2023/05/13 10:44:57;;;;;;;9.85;6.80;;;;;;;19.26;60.54;101885.19;5121936;27;20462;-73
2023/05/13 10:47:23;;;;;;;11.25;6.45;;;;;;;19.36;63.36;101880.88;5111900;28;20035;-74
2023/05/13 10:49:52;;;;;;;9.32;6.22;;;;;;;19.40;61.33;101879.25;5093584;28;20016;-71
2023/05/13 10:52:17;;;;;;;9.32;5.82;;;;;;;19.52;61.84;101885.44;5093797;28;20030;-74
2023/05/13 10:54:43;;;;;;;9.90;5.35;;;;;;;19.61;58.52;101881.13;5093239;28;20108;-70
2023/05/13 10:57:08;;;;;;;9.45;4.40;;;;;;;19.75;58.24;101880.69;5093826;28;20021;-72
2023/05/13 10:59:36;;;;;;;10.25;4.50;;;;;;;19.93;54.25;101880.31;5109206;28;20478;-73
2023/05/13 11:02:18;;;;;;;9.63;4.47;;;;;;;20.00;55.73;101877.31;5102022;28;20086;-76
2023/05/13 11:04:59;;;;;;;8.00;4.78;;;;;;;20.06;57.00;101876.25;5081460;28;20052;-74
2023/05/13 11:07:27;;;;;;;5.82;4.65;;;;;;;20.16;54.93;101881.03;5073216;28;20029;-72
2023/05/13 11:09:53;;;;;;;7.97;4.30;;;;;;;20.34;53.65;101877.84;5074178;28;20547;-74
2023/05/13 11:12:18;;;;;;;6.60;4.18;;;;;;;20.34;52.98;101877.84;5083662;28;20440;-73
2023/05/13 11:14:44;;;;;;;9.27;4.53;;;;;;;20.39;51.50;101865.22;5078832;28;20042;-72
2023/05/13 11:17:11;;;;;;;7.68;4.60;;;;;;;20.42;51.74;101856.44;5091536;28;20052;-72
2023/05/13 11:19:43;;;;;;;7.78;4.00;;;;;;;20.45;50.64;101864.97;5106256;28;20031;-72
2023/05/13 11:22:13;;;;;;;9.05;4.40;;;;;;;20.53;52.23;101852.63;5113955;28;20446;-71
2023/05/13 11:24:39;;;;;;;5.87;3.77;;;;;;;20.60;48.26;101858.72;5106583;28;20432;-70
2023/05/13 11:27:16;;;;;;;8.18;3.75;;;;;;;20.60;48.11;101858.72;5093349;28;20052;-70
2023/05/13 11:29:53;;;;;;;7.40;3.72;;;;;;;20.71;48.08;101846.72;5078895;28;20036;-71
2023/05/13 11:32:50;;;;;;;7.22;3.40;;;;;;;20.85;50.79;101843.47;5093617;28;20093;-72
2023/05/13 11:35:26;;;;;;;12.82;3.63;;;;;;;20.89;48.91;101855.56;5093239;28;20028;-73
2023/05/13 11:37:52;;;;;;;6.93;3.30;;;;;;;20.92;46.67;101852.25;5093250;28;20092;-71
2023/05/13 11:40:24;;;;;;;8.07;3.30;;;;;;;21.05;47.76;101849.00;5092873;28;20032;-71
2023/05/13 11:42:50;;;;;;;4.80;3.10;;;;;;;21.08;43.57;101850.38;5091547;28;20051;-72
2023/05/13 11:45:16;;;;;;;10.00;3.78;;;;;;;21.17;44.81;101845.19;5106964;28;20450;-70
2023/05/13 11:47:41;;;;;;;8.40;3.13;;;;;;;21.23;43.76;101855.09;5097780;28;20024;-72
2023/05/13 11:50:18;;;;;;;5.55;3.20;;;;;;;21.33;45.43;101827.59;5094633;28;20035;-71
2023/05/13 11:52:44;;;;;;;4.72;2.85;;;;;;;21.38;43.04;101835.84;5091727;28;20370;-73
2023/05/13 11:55:09;;;;;;;6.25;3.33;;;;;;;21.22;41.21;101840.50;5092519;28;20371;-74
2023/05/13 11:57:35;;;;;;;5.90;2.88;;;;;;;21.22;39.57;101832.22;5092622;28;20024;-72
2023/05/13 12:00:06;;;;;;;10.23;3.20;;;;;;;21.31;40.49;101829.78;5106835;28;20027;-73
2023/05/13 12:02:34;;;;;;;8.25;2.90;;;;;;;21.50;41.48;101829.25;5109463;28;20121;-72
2023/05/13 12:05:04;;;;;;;6.25;3.15;;;;;;;21.62;39.66;101831.75;5099070;28;20040;-72
2023/05/13 12:07:29;;;;;;;6.63;2.90;;;;;;;21.77;40.54;101834.50;5092509;28;20102;-73
2023/05/13 12:09:57;;;;;;;8.25;3.00;;;;;;;21.91;39.38;101823.75;5092440;28;20451;-72
2023/05/13 12:12:23;;;;;;;3.25;2.95;;;;;;;21.99;38.89;101823.16;5090585;28;20028;-71
2023/05/13 12:14:49;;;;;;;5.00;2.70;;;;;;;22.00;37.07;101827.56;5111019;28;20075;-70
2023/05/13 12:17:19;;;;;;;7.10;3.10;;;;;;;22.04;38.06;101816.81;5111225;28;20046;-74
2023/05/13 12:20:03;;;;;;;4.78;2.65;;;;;;;22.08;40.39;101829.75;5092285;28;20417;-70
2023/05/13 12:22:28;;;;;;;8.52;3.10;;;;;;;21.99;38.65;101814.91;5108276;28;20486;-70
2023/05/13 12:24:53;;;;;;;8.00;3.10;;;;;;;22.03;38.42;101809.66;5091502;28;20024;-75
2023/05/13 12:27:20;;;;;;;4.90;3.25;;;;;;;22.14;40.07;101811.28;5120329;28;20035;-71
2023/05/13 12:29:46;;;;;;;4.78;3.15;;;;;;;22.29;39.61;101813.16;5112639;28;20035;-71
2023/05/13 12:32:15;;;;;;;5.55;2.85;;;;;;;22.35;38.05;101820.34;5128679;28;20031;-70
2023/05/13 12:34:47;;;;;;;7.53;2.83;;;;;;;22.40;38.34;101817.56;5112686;28;20314;-71
2023/05/13 12:37:13;;;;;;;6.85;2.70;;;;;;;22.41;37.51;101824.72;5112824;28;20024;-70
2023/05/13 12:39:40;;;;;;;8.15;3.10;;;;;;;22.35;38.17;101823.09;5111002;28;20024;-71
2023/05/13 12:42:06;;;;;;;5.72;3.20;;;;;;;22.28;37.09;101819.78;5091604;28;20057;-72
2023/05/13 12:44:32;;;;;;;5.82;2.90;;;;;;;22.32;36.10;101820.91;5092090;28;20141;-71
2023/05/13 12:46:58;;;;;;;7.07;2.60;;;;;;;22.41;34.84;101813.69;5102707;28;20024;-72
2023/05/13 12:49:23;;;;;;;4.60;2.92;;;;;;;22.42;37.05;101809.84;5112681;28;20020;-71
2023/05/13 12:51:50;;;;;;;5.45;2.72;;;;;;;22.46;37.28;101813.69;5113509;28;20015;-71
2023/05/13 12:54:16;;;;;;;6.97;2.60;;;;;;;22.51;35.83;101814.75;5116520;28;20020;-70
2023/05/13 12:56:41;;;;;;;8.98;2.90;;;;;;;22.55;36.51;101813.91;5094182;28;20039;-70
2023/05/13 12:59:07;;;;;;;3.38;2.67;;;;;;;22.67;35.12;101816.34;5096277;28;20027;-71
2023/05/13 13:01:33;;;;;;;4.43;2.65;;;;;;;22.76;34.56;101813.81;5100393;28;20543;-70
2023/05/13 13:03:59;;;;;;;5.07;2.63;;;;;;;22.75;35.17;101813.00;5114757;28;20031;-70
2023/05/13 13:06:24;;;;;;;4.32;2.70;;;;;;;22.77;34.83;101819.06;5116288;28;20092;-70
2023/05/13 13:08:50;;;;;;;5.95;2.60;;;;;;;22.81;33.92;101814.63;5100866;28;20387;-72
2023/05/13 13:11:18;;;;;;;4.90;2.97;;;;;;;22.88;34.72;101813.47;5094870;28;20015;-73
2023/05/13 13:13:44;;;;;;;5.35;2.95;;;;;;;22.92;34.08;101823.66;5095559;28;20400;-75
2023/05/13 13:16:10;;;;;;;5.32;2.78;;;;;;;22.96;34.21;101815.63;5094603;28;20032;-72
2023/05/13 13:18:35;;;;;;;7.35;2.72;;;;;;;23.02;34.12;101814.47;5095529;28;20397;-72
2023/05/13 13:21:01;;;;;;;4.78;2.60;;;;;;;23.11;34.12;101815.56;5110544;28;20027;-71
2023/05/13 13:23:27;;;;;;;22.63;3.72;;;;;;;23.15;35.07;101813.88;5114145;28;20034;-71
2023/05/13 13:25:52;;;;;;;7.18;2.60;;;;;;;23.15;35.17;101822.16;5115629;28;20015;-70
2023/05/13 13:28:17;;;;;;;8.73;2.83;;;;;;;23.00;35.47;101814.78;5101816;28;20118;-71
2023/05/13 13:30:45;;;;;;;4.35;2.70;;;;;;;23.04;34.45;101817.81;5095204;28;20020;-71
2023/05/13 13:33:12;;;;;;;4.75;2.80;;;;;;;23.20;34.95;101812.19;5095405;28;20202;-74
2023/05/13 13:35:38;;;;;;;6.57;2.97;;;;;;;23.03;34.26;101818.91;5092348;28;20370;-70
2023/05/13 13:38:03;;;;;;;19.65;3.33;;;;;;;22.89;34.08;101818.72;5093749;28;20024;-72
2023/05/13 13:40:28;;;;;;;15.65;3.17;;;;;;;22.87;34.94;101809.06;5084880;28;20043;-71
2023/05/13 13:42:54;;;;;;;6.47;2.45;;;;;;;22.78;33.88;101811.59;5087958;28;20039;-72
2023/05/13 13:45:22;;;;;;;5.25;2.83;;;;;;;22.74;33.78;101818.81;5094315;28;20111;-72
2023/05/13 13:47:48;;;;;;;9.52;3.15;;;;;;;22.88;35.15;101811.53;5094671;28;20023;-73
2023/05/13 13:50:14;;;;;;;5.53;2.83;;;;;;;23.07;33.90;101810.88;5096427;28;20383;-83
2023/05/13 13:52:39;;;;;;;6.40;3.08;;;;;;;23.21;34.23;101811.09;5119984;27;20035;-75
2023/05/13 13:55:05;;;;;;;7.95;3.00;;;;;;;23.23;34.58;101797.81;5094904;28;20024;-73
2023/05/13 13:57:30;;;;;;;8.13;3.15;;;;;;;23.27;35.78;101785.91;5092388;28;21332;-74
2023/05/13 13:59:56;;;;;;;5.43;2.90;;;;;;;23.49;35.08;101792.91;5120781;27;20065;-71
2023/05/13 14:02:21;;;;;;;7.70;2.95;;;;;;;23.56;36.74;101782.34;5077487;28;20041;-72
2023/05/13 14:04:46;;;;;;;4.28;2.80;;;;;;;23.67;34.78;101783.91;5081722;28;20117;-70
2023/05/13 14:07:12;;;;;;;12.57;3.30;;;;;;;23.82;34.47;101780.13;5095623;28;20019;-71
2023/05/13 14:09:37;;;;;;;6.88;3.15;;;;;;;23.75;33.49;101778.84;5096369;28;20289;-75
2023/05/13 14:12:03;;;;;;;5.75;2.60;;;;;;;23.75;34.19;101770.53;5076469;28;20016;-72
2023/05/13 14:14:28;;;;;;;4.15;2.67;;;;;;;23.93;34.04;101774.53;5103519;28;20114;-74
2023/05/13 14:16:53;;;;;;;4.65;3.30;;;;;;;24.03;33.27;101763.38;5114454;28;20061;-73
2023/05/13 14:19:19;;;;;;;5.25;3.00;;;;;;;24.07;33.95;101775.50;5083528;28;20442;-79
2023/05/13 14:21:45;;;;;;;6.70;2.55;;;;;;;23.94;34.83;101777.00;5075168;28;20419;-73
2023/05/13 14:24:10;;;;;;;4.55;2.95;;;;;;;23.57;34.04;101775.72;5093900;28;20405;-73
2023/05/13 14:26:36;;;;;;;5.68;3.13;;;;;;;23.31;34.97;101769.56;5076177;28;20523;-72
2023/05/13 14:29:01;;;;;;;5.85;2.80;;;;;;;23.31;35.28;101766.81;5075675;28;20030;-74
2023/05/13 14:31:27;;;;;;;4.38;2.75;;;;;;;23.51;36.06;101769.41;5088500;28;20026;-75
2023/05/13 14:33:52;;;;;;;5.32;3.13;;;;;;;23.68;35.38;101765.38;5094199;28;20034;-73
2023/05/13 14:36:19;;;;;;;4.93;2.80;;;;;;;23.82;34.82;101758.03;5092252;28;20050;-74
2023/05/13 14:38:44;;;;;;;6.82;3.03;;;;;;;23.81;34.02;101761.94;5093629;28;20050;-71
2023/05/13 14:41:11;;;;;;;6.65;3.10;;;;;;;23.98;33.55;101764.25;5094761;28;20027;-75
2023/05/13 14:43:36;;;;;;;5.38;3.17;;;;;;;24.10;32.39;101766.63;5092375;28;20544;-74
2023/05/13 14:46:02;;;;;;;5.53;3.00;;;;;;;24.23;33.27;101763.13;5095409;28;20020;-75
2023/05/13 14:48:27;;;;;;;10.55;3.05;;;;;;;24.31;32.75;101763.59;5092575;28;20024;-70
2023/05/13 14:50:53;;;;;;;5.28;2.90;;;;;;;24.29;32.92;101761.13;5093710;28;20023;-72
2023/05/13 14:53:18;;;;;;;7.20;2.90;;;;;;;24.52;34.75;101753.91;5093844;28;20340;-74
2023/05/13 14:55:44;;;;;;;9.23;3.10;;;;;;;24.52;32.54;101751.13;5075260;28;20024;-74
2023/05/13 14:58:09;;;;;;;4.95;2.70;;;;;;;24.67;33.00;101758.44;5094055;28;20111;-73
2023/05/13 15:00:40;;;;;;;9.15;3.17;;;;;;;24.66;32.31;101754.00;5093367;28;20098;-72
2023/05/13 15:03:05;;;;;;;6.18;2.88;;;;;;;24.62;32.27;101741.88;5085746;28;20516;-74
2023/05/13 15:05:31;;;;;;;4.43;2.72;;;;;;;24.52;33.13;101751.13;5093491;28;20048;-74
2023/05/13 15:07:57;;;;;;;6.70;2.70;;;;;;;24.58;31.52;101746.41;5092338;28;20058;-72
2023/05/13 15:10:23;;;;;;;7.28;2.92;;;;;;;25.19;32.05;101741.84;5093292;28;20035;-73
2023/05/13 15:12:48;;;;;;;4.75;2.83;;;;;;;25.87;30.22;101730.41;5092832;28;20023;-72
2023/05/13 15:15:14;;;;;;;7.93;2.60;;;;;;;26.34;29.45;101744.97;5106901;28;20419;-72
2023/05/13 15:17:39;;;;;;;7.68;2.78;;;;;;;26.90;29.38;101737.34;5111856;28;20026;-73
2023/05/13 15:20:05;;;;;;;6.63;2.53;;;;;;;27.37;28.03;101731.47;5129368;27;20157;-75
2023/05/13 15:22:30;;;;;;;4.97;2.45;;;;;;;27.73;27.62;101736.91;5113427;28;20527;-74
2023/05/13 15:24:56;;;;;;;6.13;2.60;;;;;;;28.00;27.50;101739.81;5092406;28;20062;-74
2023/05/13 15:27:21;;;;;;;4.28;2.35;;;;;;;28.14;26.39;101739.66;5113627;28;20040;-76
2023/05/13 15:29:46;;;;;;;7.47;2.60;;;;;;;27.90;25.98;101726.97;5091887;28;20105;-73
2023/05/13 15:32:11;;;;;;;5.90;3.08;;;;;;;27.51;26.68;101728.63;5100822;28;20276;-73
2023/05/13 15:34:37;;;;;;;4.82;2.75;;;;;;;27.57;26.51;101730.13;5108997;27;20475;-70
2023/05/13 15:37:02;;;;;;;6.70;2.38;;;;;;;27.52;25.36;101722.75;5089470;28;20028;-72
2023/05/13 15:39:27;;;;;;;5.55;2.25;;;;;;;27.34;25.57;101727.38;5094450;28;20028;-71
2023/05/13 15:41:53;;;;;;;4.55;2.20;;;;;;;27.46;25.54;101720.41;5109238;28;20023;-70
2023/05/13 15:44:18;;;;;;;5.93;2.35;;;;;;;27.61;25.91;101714.41;5112648;28;20028;-70
2023/05/13 15:46:43;;;;;;;4.85;2.30;;;;;;;27.68;25.09;101713.97;5093653;28;20584;-72
2023/05/13 15:49:09;;;;;;;5.25;2.15;;;;;;;27.64;24.41;101713.78;5096300;28;20023;-74
2023/05/13 15:51:34;;;;;;;3.45;2.03;;;;;;;27.51;25.74;101711.94;5113542;28;20035;-72
2023/05/13 15:54:00;;;;;;;4.43;2.60;;;;;;;27.34;27.13;101712.66;5111002;28;20020;-70
2023/05/13 15:56:25;;;;;;;4.78;2.60;;;;;;;27.20;25.66;101709.94;5094831;28;20031;-73
2023/05/13 15:58:51;;;;;;;7.93;2.78;;;;;;;27.22;27.12;101714.03;5093480;28;20024;-71
2023/05/13 16:01:16;;;;;;;7.38;3.03;;;;;;;27.17;27.66;101705.81;5080633;28;20048;-75
